createdAt,value
2022-08-06T00:00:06.372Z,18.71
2022-08-06T00:02:41.951Z,18.71
2022-08-06T00:05:18.328Z,18.76
2022-08-06T00:07:58.371Z,18.79
2022-08-06T00:10:29.118Z,18.81
2022-08-06T00:13:02.027Z,18.80
2022-08-06T00:16:06.249Z,18.77
2022-08-06T00:18:25.128Z,18.72
2022-08-06T00:20:55.382Z,18.77
2022-08-06T00:23:26.442Z,18.79
2022-08-06T00:25:56.578Z,18.80
2022-08-06T00:28:30.891Z,18.81
2022-08-06T00:31:06.407Z,18.83
2022-08-06T00:33:49.803Z,18.84
2022-08-06T00:36:29.533Z,18.77
2022-08-06T00:39:06.144Z,18.74
2022-08-06T00:41:42.254Z,18.71
2022-08-06T00:44:23.190Z,18.69
2022-08-06T00:47:01.652Z,18.68
2022-08-06T00:49:48.876Z,18.67
2022-08-06T00:52:20.517Z,18.62
2022-08-06T00:54:51.554Z,18.55
2022-08-06T00:57:22.748Z,18.55
2022-08-06T00:59:57.020Z,18.56
2022-08-06T01:02:27.285Z,18.57
2022-08-06T01:05:07.195Z,18.52
2022-08-06T01:07:51.895Z,18.55
2022-08-06T01:10:30.766Z,18.47
2022-08-06T01:13:04.622Z,18.43
2022-08-06T01:16:29.403Z,18.39
2022-08-06T01:19:50.573Z,18.36
2022-08-06T01:22:30.910Z,18.36
2022-08-06T01:25:24.114Z,18.33
2022-08-06T01:28:07.051Z,18.32
2022-08-06T01:30:45.864Z,18.30
2022-08-06T01:33:31.891Z,18.24
2022-08-06T01:36:20.521Z,18.24
2022-08-06T01:39:01.634Z,18.20
2022-08-06T01:41:58.597Z,18.23
2022-08-06T01:44:44.217Z,18.13
2022-08-06T01:47:18.129Z,18.23
2022-08-06T01:50:02.188Z,18.22
2022-08-06T01:52:59.828Z,18.17
2022-08-06T01:55:58.614Z,18.07
2022-08-06T01:58:34.459Z,18.14
2022-08-06T02:01:08.412Z,18.10
2022-08-06T02:03:53.183Z,18.00
2022-08-06T02:06:34.199Z,17.92
2022-08-06T02:09:22.824Z,17.91
2022-08-06T02:12:06.500Z,17.85
2022-08-06T02:15:03.801Z,17.91
2022-08-06T02:18:04.544Z,17.86
2022-08-06T02:20:48.397Z,17.84
2022-08-06T02:23:33.133Z,17.82
2022-08-06T02:26:05.924Z,17.84
2022-08-06T02:28:39.187Z,17.84
2022-08-06T02:31:09.853Z,17.78
2022-08-06T02:34:02.939Z,17.74
2022-08-06T02:37:12.576Z,17.70
2022-08-06T02:39:57.194Z,17.62
2022-08-06T02:42:53.765Z,17.66
2022-08-06T02:45:39.618Z,17.62
2022-08-06T02:48:31.857Z,17.58
2022-08-06T02:51:29.626Z,17.56
2022-08-06T02:54:07.314Z,17.41
2022-08-06T02:56:45.699Z,17.49
2022-08-06T02:59:22.897Z,17.44
2022-08-06T03:01:57.769Z,17.37
2022-08-06T03:04:32.874Z,17.44
2022-08-06T03:07:26.317Z,17.45
2022-08-06T03:10:00.284Z,17.51
2022-08-06T03:12:31.730Z,17.53
2022-08-06T03:15:10.927Z,17.51
2022-08-06T03:17:46.125Z,17.33
2022-08-06T03:20:25.518Z,17.40
2022-08-06T03:23:01.633Z,17.27
2022-08-06T03:25:33.705Z,17.26
2022-08-06T03:28:22.401Z,17.25
2022-08-06T03:30:55.918Z,17.22
2022-08-06T03:33:41.915Z,17.19
2022-08-06T03:36:18.922Z,17.21
2022-08-06T03:38:58.208Z,17.25
2022-08-06T03:41:34.751Z,17.20
2022-08-06T03:44:11.822Z,17.22
2022-08-06T03:47:01.997Z,17.14
2022-08-06T03:49:41.403Z,17.18
2022-08-06T03:52:16.482Z,17.12
2022-08-06T03:54:51.367Z,17.11
2022-08-06T03:57:29.242Z,17.11
2022-08-06T04:00:02.552Z,17.01
2022-08-06T04:02:45.786Z,16.98
2022-08-06T04:05:29.170Z,17.02
2022-08-06T04:08:06.702Z,17.03
2022-08-06T04:10:57.344Z,16.99
2022-08-06T04:14:04.973Z,16.97
2022-08-06T04:16:33.120Z,16.95
2022-08-06T04:19:08.664Z,16.97
2022-08-06T04:22:57.880Z,16.97
2022-08-06T04:24:32.338Z,17.02
2022-08-06T04:27:09.371Z,17.04
2022-08-06T04:29:56.114Z,17.05
2022-08-06T04:32:31.897Z,17.04
2022-08-06T04:36:05.195Z,17.08
2022-08-06T04:38:00.878Z,17.10
2022-08-06T04:40:35.771Z,17.20
2022-08-06T04:43:12.420Z,17.14
2022-08-06T04:46:17.921Z,17.19
2022-08-06T04:48:39.964Z,17.19
2022-08-06T04:51:17.427Z,17.28
2022-08-06T04:54:00.795Z,17.28
2022-08-06T04:56:37.095Z,17.26
2022-08-06T04:59:08.332Z,17.30
2022-08-06T05:01:40.678Z,17.30
2022-08-06T05:04:25.169Z,17.29
2022-08-06T05:07:51.897Z,17.29
2022-08-06T05:10:28.919Z,17.27
2022-08-06T05:12:59.303Z,17.36
2022-08-06T05:15:38.046Z,17.40
2022-08-06T05:19:15.938Z,17.38
2022-08-06T05:21:12.202Z,17.48
2022-08-06T05:23:49.352Z,17.55
2022-08-06T05:26:26.056Z,17.53
2022-08-06T05:28:57.106Z,17.53
2022-08-06T05:31:38.777Z,17.51
2022-08-06T05:34:13.281Z,17.51
2022-08-06T05:36:43.956Z,17.55
2022-08-06T05:39:57.140Z,17.49
2022-08-06T05:42:04.694Z,17.41
2022-08-06T05:44:34.880Z,17.25
2022-08-06T05:47:20.350Z,17.34
2022-08-06T05:50:09.674Z,17.39
2022-08-06T05:53:00.124Z,17.28
2022-08-06T05:55:40.715Z,17.25
2022-08-06T05:58:35.580Z,17.27
2022-08-06T06:01:12.443Z,17.27
2022-08-06T06:03:44.854Z,17.30
2022-08-06T06:06:19.273Z,17.25
2022-08-06T06:08:57.649Z,17.25
2022-08-06T06:11:46.900Z,17.31
2022-08-06T06:14:32.689Z,17.41
2022-08-06T06:17:28.063Z,17.52
2022-08-06T06:20:58.387Z,17.43
2022-08-06T06:23:35.210Z,17.38
2022-08-06T06:26:33.610Z,17.41
2022-08-06T06:30:02.575Z,17.47
2022-08-06T06:32:31.886Z,17.41
2022-08-06T06:35:33.998Z,17.37
2022-08-06T06:38:14.028Z,17.38
2022-08-06T06:41:03.001Z,17.37
2022-08-06T06:43:54.641Z,17.35
2022-08-06T06:46:40.895Z,17.37
2022-08-06T06:49:59.401Z,17.42
2022-08-06T06:52:13.402Z,17.52
2022-08-06T06:54:59.953Z,17.55
2022-08-06T06:57:43.102Z,17.59
2022-08-06T07:00:43.764Z,17.63
2022-08-06T07:03:09.620Z,17.78
2022-08-06T07:06:05.445Z,17.80
2022-08-06T07:08:46.857Z,17.83
2022-08-06T07:11:26.542Z,17.89
2022-08-06T07:13:59.955Z,17.94
2022-08-06T07:16:35.281Z,17.94
2022-08-06T07:19:10.854Z,18.03
2022-08-06T07:21:51.583Z,18.02
2022-08-06T07:24:38.160Z,18.02
2022-08-06T07:27:15.646Z,18.09
2022-08-06T07:29:50.000Z,18.06
2022-08-06T07:32:33.819Z,18.06
2022-08-06T07:35:12.060Z,18.26
2022-08-06T07:37:57.367Z,18.43
2022-08-06T07:40:32.038Z,18.46
2022-08-06T07:43:23.938Z,18.47
2022-08-06T07:45:59.436Z,18.58
2022-08-06T07:48:34.313Z,18.60
2022-08-06T07:51:07.888Z,18.66
2022-08-06T07:53:52.253Z,18.66
2022-08-06T07:56:29.543Z,18.72
2022-08-06T07:59:01.456Z,18.74
2022-08-06T08:01:36.680Z,18.74
2022-08-06T08:04:34.257Z,18.87
2022-08-06T08:07:09.671Z,18.86
2022-08-06T08:10:03.054Z,19.00
2022-08-06T08:12:37.572Z,18.95
2022-08-06T08:15:17.547Z,18.89
2022-08-06T08:17:57.461Z,19.00
2022-08-06T08:20:34.646Z,19.05
2022-08-06T08:23:08.481Z,19.02
2022-08-06T08:25:58.705Z,18.96
2022-08-06T08:28:30.312Z,19.04
2022-08-06T08:31:15.449Z,19.22
2022-08-06T08:33:51.255Z,19.41
2022-08-06T08:36:30.586Z,19.47
2022-08-06T08:39:06.101Z,19.51
2022-08-06T08:41:50.301Z,19.42
2022-08-06T08:44:27.185Z,19.47
2022-08-06T08:47:00.125Z,19.56
2022-08-06T08:49:48.600Z,19.56
2022-08-06T08:52:25.851Z,19.67
2022-08-06T08:55:00.129Z,19.71
2022-08-06T08:58:39.620Z,19.76
2022-08-06T09:00:22.774Z,19.75
2022-08-06T09:02:59.352Z,19.64
2022-08-06T09:05:34.589Z,19.49
2022-08-06T09:08:06.514Z,19.40
2022-08-06T09:10:52.140Z,19.38
2022-08-06T09:13:32.019Z,19.30
2022-08-06T09:16:19.223Z,19.22
2022-08-06T09:18:50.023Z,19.34
2022-08-06T09:21:21.185Z,19.43
2022-08-06T09:23:58.482Z,19.52
2022-08-06T09:26:51.632Z,19.56
2022-08-06T09:29:33.532Z,19.51
2022-08-06T09:32:15.527Z,19.54
2022-08-06T09:34:50.739Z,19.53
2022-08-06T09:37:30.342Z,19.50
2022-08-06T09:40:21.027Z,19.41
2022-08-06T09:42:54.160Z,19.39
2022-08-06T09:45:42.849Z,19.43
2022-08-06T09:48:17.441Z,19.43
2022-08-06T09:50:52.733Z,19.51
2022-08-06T09:53:23.937Z,19.55
2022-08-06T09:55:57.500Z,19.62
2022-08-06T09:58:29.835Z,19.75
2022-08-06T10:01:21.194Z,19.93
2022-08-06T10:04:05.703Z,20.10
2022-08-06T10:06:58.274Z,20.16
2022-08-06T10:09:44.260Z,20.09
2022-08-06T10:12:20.683Z,19.98
2022-08-06T10:14:56.942Z,20.06
2022-08-06T10:17:49.357Z,19.91
2022-08-06T10:20:19.714Z,19.86
2022-08-06T10:23:00.749Z,19.88
2022-08-06T10:25:38.482Z,19.91
2022-08-06T10:28:17.673Z,19.96
2022-08-06T10:30:48.274Z,19.90
2022-08-06T10:33:22.734Z,20.01
2022-08-06T10:36:09.323Z,20.18
2022-08-06T10:38:45.771Z,20.15
2022-08-06T10:42:00.046Z,20.02
2022-08-06T10:44:13.975Z,19.96
2022-08-06T10:46:47.201Z,19.89
2022-08-06T10:50:30.482Z,19.90
2022-08-06T10:52:11.154Z,19.76
2022-08-06T10:54:51.354Z,19.78
2022-08-06T10:57:36.183Z,19.71
2022-08-06T11:00:08.433Z,19.68
2022-08-06T11:02:59.136Z,19.69
2022-08-06T11:05:53.079Z,19.80
2022-08-06T11:08:59.084Z,19.81
2022-08-06T11:11:39.419Z,19.84
2022-08-06T11:14:14.790Z,19.73
2022-08-06T11:17:00.006Z,19.88
2022-08-06T11:19:46.917Z,19.79
2022-08-06T11:22:54.104Z,19.90
2022-08-06T11:25:41.486Z,19.99
2022-08-06T11:28:14.336Z,20.14
2022-08-06T11:30:51.851Z,20.09
2022-08-06T11:33:38.635Z,20.00
2022-08-06T11:36:12.005Z,19.95
2022-08-06T11:38:51.032Z,20.01
2022-08-06T11:41:51.526Z,20.08
2022-08-06T11:44:35.781Z,20.13
2022-08-06T11:47:30.626Z,20.21
2022-08-06T11:50:27.202Z,20.19
2022-08-06T11:52:58.053Z,20.30
2022-08-06T11:55:29.368Z,20.45
2022-08-06T11:58:22.962Z,20.34
2022-08-06T12:01:03.569Z,20.34
2022-08-06T12:03:53.028Z,20.41
2022-08-06T12:06:25.899Z,20.50
2022-08-06T12:09:35.846Z,20.48
2022-08-06T12:12:26.554Z,20.42
2022-08-06T12:15:02.169Z,20.31
2022-08-06T12:17:45.614Z,20.22
2022-08-06T12:20:40.611Z,20.18
2022-08-06T12:23:17.868Z,20.14
2022-08-06T12:25:49.417Z,20.19
2022-08-06T12:28:20.589Z,20.07
2022-08-06T12:30:52.699Z,20.03
2022-08-06T12:33:24.539Z,20.06
2022-08-06T12:35:58.359Z,20.07
2022-08-06T12:38:31.102Z,20.13
2022-08-06T12:41:10.497Z,20.12
2022-08-06T12:43:57.427Z,20.23
2022-08-06T12:46:29.091Z,20.38
2022-08-06T12:49:03.570Z,20.53
2022-08-06T12:51:34.332Z,20.57
2022-08-06T12:54:07.257Z,20.68
2022-08-06T12:56:40.157Z,20.66
2022-08-06T12:59:22.628Z,20.67
2022-08-06T13:02:11.961Z,20.85
2022-08-06T13:04:51.166Z,21.01
2022-08-06T13:07:21.704Z,21.05
2022-08-06T13:10:35.300Z,20.99
2022-08-06T13:14:02.191Z,21.04
2022-08-06T13:15:46.254Z,21.01
2022-08-06T13:18:41.661Z,20.99
2022-08-06T13:21:33.761Z,21.09
2022-08-06T13:24:25.979Z,21.04
2022-08-06T13:27:02.673Z,21.19
2022-08-06T13:30:35.202Z,21.35
2022-08-06T13:32:33.494Z,21.30
2022-08-06T13:35:17.950Z,21.30
2022-08-06T13:38:01.437Z,21.33
2022-08-06T13:40:51.948Z,21.38
2022-08-06T13:43:53.351Z,21.54
2022-08-06T13:46:29.495Z,21.66
2022-08-06T13:49:04.503Z,21.71
2022-08-06T13:51:49.031Z,21.62
2022-08-06T13:54:25.992Z,21.56
2022-08-06T13:56:57.408Z,21.62
2022-08-06T13:59:40.337Z,21.67
2022-08-06T14:02:13.098Z,21.75
2022-08-06T14:04:50.216Z,21.95
2022-08-06T14:07:21.295Z,22.04
2022-08-06T14:10:08.701Z,21.97
2022-08-06T14:12:40.628Z,21.99
2022-08-06T14:15:13.039Z,21.91
2022-08-06T14:17:45.888Z,21.88
2022-08-06T14:20:24.115Z,22.02
2022-08-06T14:22:56.629Z,22.15
2022-08-06T14:25:28.719Z,22.22
2022-08-06T14:28:18.239Z,22.20
2022-08-06T14:30:52.312Z,22.20
2022-08-06T14:33:36.350Z,22.25
2022-08-06T14:36:08.008Z,22.29
2022-08-06T14:38:39.824Z,22.28
2022-08-06T14:41:51.077Z,22.27
2022-08-06T14:44:40.493Z,22.32
2022-08-06T14:47:19.971Z,22.22
2022-08-06T14:50:02.068Z,22.28
2022-08-06T14:52:36.036Z,22.22
2022-08-06T14:55:06.877Z,22.04
2022-08-06T14:58:03.455Z,22.13
2022-08-06T15:00:36.930Z,22.22
2022-08-06T15:03:13.930Z,22.22
2022-08-06T15:06:04.527Z,22.29
2022-08-06T15:08:37.346Z,22.30
2022-08-06T15:11:19.171Z,22.35
2022-08-06T15:13:51.465Z,22.44
2022-08-06T15:16:47.970Z,22.35
2022-08-06T15:19:15.586Z,22.46
2022-08-06T15:21:54.983Z,22.61
2022-08-06T15:24:25.837Z,22.51
2022-08-06T15:26:56.154Z,22.43
2022-08-06T15:29:26.400Z,22.42
2022-08-06T15:32:01.939Z,22.53
2022-08-06T15:34:39.080Z,22.60
2022-08-06T15:37:52.980Z,22.67
2022-08-06T15:40:06.063Z,22.48
2022-08-06T15:42:38.256Z,22.39
2022-08-06T15:45:45.297Z,22.18
2022-08-06T15:48:07.038Z,22.37
2022-08-06T15:50:43.167Z,22.38
2022-08-06T15:53:23.793Z,22.42
2022-08-06T15:55:54.180Z,22.49
2022-08-06T15:58:30.435Z,22.42
2022-08-06T16:01:05.314Z,22.56
2022-08-06T16:03:56.929Z,22.49
2022-08-06T16:06:28.636Z,22.69
2022-08-06T16:08:59.953Z,22.84
2022-08-06T16:11:48.255Z,23.05
2022-08-06T16:14:33.486Z,23.49
2022-08-06T16:17:09.901Z,23.73
2022-08-06T16:19:49.392Z,23.62
2022-08-06T16:22:20.564Z,23.77
2022-08-06T16:24:52.053Z,24.02
2022-08-06T16:27:22.719Z,23.76
2022-08-06T16:30:05.011Z,23.67
2022-08-06T16:32:35.972Z,23.79
2022-08-06T16:35:06.789Z,23.74
2022-08-06T16:37:39.595Z,23.65
2022-08-06T16:40:10.845Z,23.52
2022-08-06T16:42:41.711Z,23.31
2022-08-06T16:45:15.368Z,23.11
2022-08-06T16:48:21.804Z,22.76
2022-08-06T16:50:38.514Z,22.39
2022-08-06T16:54:08.632Z,21.87
2022-08-06T16:56:02.237Z,21.73
2022-08-06T16:58:33.155Z,21.70
2022-08-06T17:02:14.863Z,21.78
2022-08-06T17:04:00.031Z,21.98
2022-08-06T17:06:35.056Z,22.15
2022-08-06T17:09:17.105Z,22.67
2022-08-06T17:11:58.146Z,22.86
2022-08-06T17:14:32.656Z,22.80
2022-08-06T17:17:06.867Z,22.85
2022-08-06T17:19:41.710Z,22.83
2022-08-06T17:22:13.035Z,22.86
2022-08-06T17:24:45.110Z,22.71
2022-08-06T17:27:16.425Z,22.73
2022-08-06T17:36:38.098Z,22.55
2022-08-06T17:38:20.471Z,22.56
2022-08-06T17:40:50.686Z,22.20
2022-08-06T17:43:22.325Z,21.83
2022-08-06T17:46:02.663Z,21.62
2022-08-06T17:48:43.789Z,21.45
2022-08-06T17:51:20.966Z,21.20
2022-08-06T17:53:55.160Z,20.86
2022-08-06T17:56:29.574Z,20.49
2022-08-06T17:59:17.040Z,20.28
2022-08-06T18:01:50.481Z,19.96
2022-08-06T18:04:33.428Z,19.69
2022-08-06T18:07:12.337Z,19.37
2022-08-06T18:10:16.456Z,19.21
2022-08-06T18:12:49.170Z,19.00
2022-08-06T18:15:21.166Z,18.81
2022-08-06T18:18:04.348Z,18.66
2022-08-06T18:20:41.859Z,18.46
2022-08-06T18:23:20.782Z,18.21
2022-08-06T18:25:56.889Z,18.11
2022-08-06T18:28:36.528Z,18.09
2022-08-06T18:31:10.769Z,18.05
2022-08-06T18:33:42.769Z,18.00
2022-08-06T18:36:16.676Z,17.86
2022-08-06T18:38:47.848Z,17.73
2022-08-06T18:41:19.362Z,17.70
2022-08-06T18:43:58.035Z,17.61
2022-08-06T18:46:56.089Z,17.54
2022-08-06T18:49:32.489Z,17.47
2022-08-06T18:52:24.297Z,17.36
2022-08-06T18:54:59.009Z,17.34
2022-08-06T18:57:38.260Z,17.26
2022-08-06T19:00:23.889Z,17.19
2022-08-06T19:03:10.637Z,17.13
2022-08-06T19:05:44.843Z,17.08
2022-08-06T19:08:29.286Z,17.01
2022-08-06T19:11:00.885Z,16.89
2022-08-06T19:14:02.160Z,16.87
2022-08-06T19:16:29.913Z,16.84
2022-08-06T19:19:00.202Z,16.75
2022-08-06T19:21:30.528Z,16.74
2022-08-06T19:24:03.604Z,16.71
2022-08-06T19:26:37.075Z,16.65
2022-08-06T19:29:08.857Z,16.64
2022-08-06T19:31:55.536Z,16.63
2022-08-06T19:34:25.791Z,16.63
2022-08-06T19:37:02.904Z,16.64
2022-08-06T19:39:57.502Z,16.56
2022-08-06T19:42:32.718Z,16.51
2022-08-06T19:45:16.629Z,16.39
2022-08-06T19:47:49.257Z,16.41
2022-08-06T19:50:19.828Z,16.38
2022-08-06T19:52:50.280Z,16.32
2022-08-06T19:56:08.334Z,16.10
2022-08-06T19:58:26.370Z,16.17
2022-08-06T20:01:31.949Z,15.96
2022-08-06T20:03:59.342Z,15.88
2022-08-06T20:07:01.169Z,15.93
2022-08-06T20:09:26.839Z,15.87
2022-08-06T20:12:05.000Z,15.83
2022-08-06T20:14:37.542Z,15.85
2022-08-06T20:17:07.730Z,15.88
2022-08-06T20:20:06.317Z,15.87
2022-08-06T20:22:29.375Z,15.83
2022-08-06T20:24:59.611Z,15.78
2022-08-06T20:27:38.645Z,15.65
2022-08-06T20:30:20.180Z,15.62
2022-08-06T20:32:53.918Z,15.62
2022-08-06T20:35:27.070Z,15.56
2022-08-06T20:38:03.152Z,15.56
2022-08-06T20:41:57.286Z,15.39
2022-08-06T20:44:05.618Z,15.30
2022-08-06T20:46:22.242Z,15.45
2022-08-06T20:48:52.849Z,15.30
2022-08-06T20:51:26.828Z,15.45
2022-08-06T20:54:17.170Z,15.34
2022-08-06T20:56:49.387Z,15.20
2022-08-06T20:59:20.822Z,15.24
2022-08-06T21:01:57.887Z,15.26
2022-08-06T21:05:14.769Z,15.22
2022-08-06T21:07:36.807Z,15.28
2022-08-06T21:10:11.698Z,15.18
2022-08-06T21:12:44.877Z,15.21
2022-08-06T21:15:53.903Z,15.23
2022-08-06T21:18:23.992Z,15.22
2022-08-06T21:20:58.723Z,15.23
2022-08-06T21:23:55.143Z,15.22
2022-08-06T21:26:25.061Z,15.14
2022-08-06T21:28:55.865Z,15.12
2022-08-06T21:31:27.269Z,15.07
2022-08-06T21:33:57.941Z,15.07
2022-08-06T21:36:29.105Z,15.08
2022-08-06T21:39:00.018Z,15.06
2022-08-06T21:41:55.739Z,15.08
2022-08-06T21:44:27.410Z,15.07
2022-08-06T21:47:00.156Z,15.09
2022-08-06T21:49:58.628Z,15.03
2022-08-06T21:52:28.182Z,15.12
2022-08-06T21:56:35.275Z,15.11
2022-08-06T21:58:02.893Z,15.12
2022-08-06T22:00:40.132Z,15.12
2022-08-06T22:04:37.379Z,15.15
2022-08-06T22:06:22.387Z,15.15
2022-08-06T22:08:59.230Z,15.16
2022-08-06T22:12:38.506Z,15.15
2022-08-06T22:14:28.693Z,15.12
2022-08-06T22:17:06.101Z,15.16
2022-08-06T22:19:39.647Z,15.12
2022-08-06T22:22:13.468Z,15.14
2022-08-06T22:24:51.326Z,15.13
2022-08-06T22:27:22.237Z,15.09
2022-08-06T22:30:10.807Z,15.08
2022-08-06T22:32:47.993Z,15.09
2022-08-06T22:35:22.873Z,15.05
2022-08-06T22:38:16.247Z,15.04
2022-08-06T22:40:50.808Z,14.98
2022-08-06T22:43:30.025Z,15.01
2022-08-06T22:46:13.689Z,14.93
2022-08-06T22:48:47.407Z,14.91
2022-08-06T22:51:28.860Z,14.92
2022-08-06T22:54:29.740Z,14.91
2022-08-06T22:57:04.317Z,14.84
2022-08-06T23:00:11.980Z,14.84
2022-08-06T23:02:26.741Z,14.78
2022-08-06T23:04:56.959Z,14.62
2022-08-06T23:07:27.445Z,14.65
2022-08-06T23:10:14.425Z,14.71
2022-08-06T23:12:47.290Z,14.70
2022-08-06T23:15:30.046Z,14.67
2022-08-06T23:18:09.960Z,14.67
2022-08-06T23:20:41.397Z,14.65
2022-08-06T23:23:13.040Z,14.61
2022-08-06T23:25:59.278Z,14.57
2022-08-06T23:28:33.008Z,14.52
2022-08-06T23:31:03.220Z,14.47
2022-08-06T23:33:38.479Z,14.45
2022-08-06T23:36:14.814Z,14.39
2022-08-06T23:38:50.794Z,14.35
2022-08-06T23:41:24.511Z,14.35
2022-08-06T23:44:18.374Z,14.36
2022-08-06T23:46:51.149Z,14.35
2022-08-06T23:49:30.893Z,14.35
2022-08-06T23:52:04.240Z,14.26
2022-08-06T23:54:46.125Z,14.30
2022-08-06T23:57:32.486Z,14.29
